Time;durP1;ratioP1;P1;durP2;ratioP2;P2;SDS_P1;SDS_P2;PMS_P1;PMS_P2;Temp;Humidity;BMP_temperature;BMP_pressure;BME280_temperature;BME280_humidity;BME280_pressure;Samples;Min_cycle;Max_cycle;Signal;HPM_P1;HPM_P2
2022/06/06 00:00:39;;;;;;;13.82;12.98;;;;;;;;;;5033245;28;20025;-59
2022/06/06 00:03:04;;;;;;;11.30;10.60;;;;;;;;;;5035049;28;20033;-59
2022/06/06 00:05:30;;;;;;;13.95;13.13;;;;;;;;;;5033319;28;20457;-59
2022/06/06 00:07:55;;;;;;;11.15;10.45;;;;;;;;;;5033867;28;20470;-59
2022/06/06 00:10:20;;;;;;;12.48;11.73;;;;;;;;;;5031263;28;20414;-59
2022/06/06 00:12:46;;;;;;;13.20;12.43;;;;;;;;;;5033622;28;20033;-59
2022/06/06 00:15:14;;;;;;;11.27;10.57;;;;;;;;;;5032162;28;20048;-59
2022/06/06 00:17:39;;;;;;;15.07;13.73;;;;;;;;;;5035227;28;20099;-59
2022/06/06 00:20:06;;;;;;;12.40;11.65;;;;;;;;;;5032969;28;20025;-59
2022/06/06 00:22:31;;;;;;;13.63;12.82;;;;;;;;;;5030321;28;20033;-59
2022/06/06 00:24:56;;;;;;;13.80;13.00;;;;;;;;;;5033614;28;20017;-59
2022/06/06 00:27:22;;;;;;;12.02;11.32;;;;;;;;;;5034804;28;20051;-59
2022/06/06 00:29:49;;;;;;;12.82;12.10;;;;;;;;;;5034311;28;20034;-59
2022/06/06 00:35:03;;;;;;;15.18;14.27;;;;;;;;;;5037387;28;20053;-58
2022/06/06 00:37:31;;;;;;;13.27;12.48;;;;;;;;;;5034628;28;20052;-59
2022/06/06 00:39:57;;;;;;;13.82;12.98;;;;;;;;;;5035639;28;20053;-59
2022/06/06 00:42:22;;;;;;;13.55;12.75;;;;;;;;;;5031079;28;20080;-59
2022/06/06 00:44:50;;;;;;;15.35;14.38;;;;;;;;;;5034641;28;20041;-58
2022/06/06 00:47:26;;;;;;;16.20;15.30;;;;;;;;;;5036315;28;20090;-59
2022/06/06 00:49:58;;;;;;;12.88;12.07;;;;;;;;;;5033060;28;20402;-60
2022/06/06 00:52:31;;;;;;;13.35;12.57;;;;;;;;;;5031678;28;20105;-59
2022/06/06 00:55:02;;;;;;;12.73;11.95;;;;;;;;;;5033112;28;20057;-59
2022/06/06 00:57:30;;;;;;;;;;;;;;;;;;5034423;28;20040;-59
2022/06/06 00:59:56;;;;;;;10.50;9.85;;;;;;;;;;5037109;28;20331;-59
2022/06/06 01:02:21;;;;;;;10.43;9.80;;;;;;;;;;5033864;28;20037;-59
2022/06/06 01:04:47;;;;;;;11.82;11.13;;;;;;;;;;5036455;28;20137;-59
2022/06/06 01:07:13;;;;;;;10.68;10.02;;;;;;;;;;5031213;28;20136;-59
2022/06/06 01:09:41;;;;;;;11.85;11.15;;;;;;;;;;5035515;28;20068;-59
2022/06/06 01:12:11;;;;;;;11.18;10.48;;;;;;;;;;5031200;28;20025;-59
2022/06/06 01:15:02;;;;;;;10.07;9.48;;;;;;;;;;5029697;28;20073;-59
2022/06/06 01:17:39;;;;;;;;;;;;;;;;;;5030525;28;20508;-59
2022/06/06 01:20:42;;;;;;;9.68;9.02;;;;;;;;;;5033008;28;19912;-59
2022/06/06 01:23:10;;;;;;;9.20;8.60;;;;;;;;;;5033317;28;20426;-59
2022/06/06 01:25:52;;;;;;;9.73;9.13;;;;;;;;;;5034604;28;20037;-59
2022/06/06 01:28:48;;;;;;;8.68;8.13;;;;;;;;;;5034867;28;20561;-59
2022/06/06 01:31:21;;;;;;;7.90;7.40;;;;;;;;;;5031803;28;20094;-59
2022/06/06 01:33:56;;;;;;;8.45;7.85;;;;;;;;;;5031490;28;20741;-59
2022/06/06 01:36:23;;;;;;;8.73;8.13;;;;;;;;;;5030864;28;20041;-59
2022/06/06 01:38:49;;;;;;;8.55;7.95;;;;;;;;;;5034913;28;20139;-59
2022/06/06 01:41:28;;;;;;;8.98;8.38;;;;;;;;;;5034487;28;20029;-59
2022/06/06 01:44:02;;;;;;;9.13;8.52;;;;;;;;;;5035064;28;20029;-59
2022/06/06 01:46:33;;;;;;;9.02;8.43;;;;;;;;;;5031181;28;20033;-59
2022/06/06 01:48:59;;;;;;;9.32;8.73;;;;;;;;;;5033674;28;20116;-59
2022/06/06 01:51:28;;;;;;;9.80;9.20;;;;;;;;;;5029659;28;20574;-59
2022/06/06 01:53:55;;;;;;;10.45;9.75;;;;;;;;;;5026778;28;20475;-59
2022/06/06 01:56:24;;;;;;;10.00;9.30;;;;;;;;;;5030567;28;20041;-59
2022/06/06 01:58:50;;;;;;;10.55;9.88;;;;;;;;;;5034922;28;20083;-60
2022/06/06 02:01:16;;;;;;;8.93;8.32;;;;;;;;;;5030571;28;20041;-60
2022/06/06 02:03:41;;;;;;;9.25;8.65;;;;;;;;;;5032284;28;20033;-59
2022/06/06 02:06:06;;;;;;;9.52;8.93;;;;;;;;;;5031822;28;20557;-59
2022/06/06 02:08:33;;;;;;;10.48;9.88;;;;;;;;;;5030396;28;20504;-59
2022/06/06 02:10:58;;;;;;;10.30;9.65;;;;;;;;;;5030735;28;20021;-60
2022/06/06 02:13:25;;;;;;;10.60;9.90;;;;;;;;;;5029055;28;20358;-59
2022/06/06 02:15:51;;;;;;;10.15;9.55;;;;;;;;;;5035987;28;20024;-59
2022/06/06 02:18:17;;;;;;;10.43;9.75;;;;;;;;;;5031494;28;20033;-60
2022/06/06 02:20:42;;;;;;;11.10;10.40;;;;;;;;;;5027518;28;20033;-59
2022/06/06 02:23:08;;;;;;;10.43;9.73;;;;;;;;;;5027699;28;20037;-59
2022/06/06 02:25:34;;;;;;;9.95;9.25;;;;;;;;;;5033781;28;20021;-59
2022/06/06 02:28:01;;;;;;;9.77;9.18;;;;;;;;;;5035632;28;20021;-59
2022/06/06 02:30:30;;;;;;;8.60;8.00;;;;;;;;;;5031851;28;20624;-59
2022/06/06 02:32:56;;;;;;;9.05;8.45;;;;;;;;;;5031560;28;20103;-59
2022/06/06 02:35:30;;;;;;;9.05;8.35;;;;;;;;;;5031529;28;20033;-59
2022/06/06 02:37:56;;;;;;;8.02;7.47;;;;;;;;;;5029119;28;20040;-60
2022/06/06 02:40:24;;;;;;;8.77;8.18;;;;;;;;;;5034707;28;20083;-59
2022/06/06 02:42:50;;;;;;;8.13;7.53;;;;;;;;;;5032175;28;20099;-59
2022/06/06 02:45:16;;;;;;;7.78;7.28;;;;;;;;;;5033552;28;20030;-60
2022/06/06 02:47:47;;;;;;;8.88;8.27;;;;;;;;;;5031836;28;20036;-59
2022/06/06 02:50:16;;;;;;;8.80;8.20;;;;;;;;;;5031408;28;20045;-59
2022/06/06 02:52:43;;;;;;;8.15;7.60;;;;;;;;;;5035115;28;20029;-59
2022/06/06 02:55:11;;;;;;;8.68;8.07;;;;;;;;;;5032300;28;20045;-59
2022/06/06 02:57:42;;;;;;;8.50;7.90;;;;;;;;;;5032192;28;20041;-59
2022/06/06 03:00:10;;;;;;;8.57;8.02;;;;;;;;;;5035248;28;20033;-59
2022/06/06 03:02:35;;;;;;;7.90;7.40;;;;;;;;;;5036123;28;20586;-59
2022/06/06 03:05:03;;;;;;;10.65;9.95;;;;;;;;;;5037023;28;20029;-58
2022/06/06 03:08:06;;;;;;;10.38;9.77;;;;;;;;;;5037082;28;20018;-59
2022/06/06 03:10:48;;;;;;;11.35;10.65;;;;;;;;;;5035777;28;20033;-60
2022/06/06 03:13:21;;;;;;;12.07;11.18;;;;;;;;;;5034667;28;20037;-59
2022/06/06 03:22:38;;;;;;;12.40;11.63;;;;;;;;;;5032872;28;20037;-59
2022/06/06 03:25:14;;;;;;;14.02;13.23;;;;;;;;;;5036303;28;20462;-60
2022/06/06 03:27:58;;;;;;;13.52;12.73;;;;;;;;;;5037679;28;20048;-59
2022/06/06 03:30:51;;;;;;;13.32;12.52;;;;;;;;;;5036185;28;20138;-59
2022/06/06 03:33:28;;;;;;;13.15;12.35;;;;;;;;;;5034122;28;20435;-59
2022/06/06 03:36:12;;;;;;;12.93;11.93;;;;;;;;;;5031629;28;20063;-59
2022/06/06 03:38:46;;;;;;;12.73;11.93;;;;;;;;;;5034476;28;20443;-59
2022/06/06 03:41:31;;;;;;;13.98;13.07;;;;;;;;;;5037835;28;20045;-60
2022/06/06 03:44:09;;;;;;;13.93;13.02;;;;;;;;;;5031570;28;20041;-59
2022/06/06 03:46:42;;;;;;;14.70;13.80;;;;;;;;;;5033407;28;20358;-60
2022/06/06 03:49:32;;;;;;;16.77;15.77;;;;;;;;;;5033577;28;20038;-60
2022/06/06 03:52:16;;;;;;;15.45;14.45;;;;;;;;;;5038231;28;20029;-59
2022/06/06 03:54:57;;;;;;;15.13;14.23;;;;;;;;;;5033007;28;20043;-60
2022/06/06 03:57:25;;;;;;;15.13;14.23;;;;;;;;;;5032883;28;20167;-59
2022/06/06 03:59:55;;;;;;;17.15;15.95;;;;;;;;;;5036079;28;20082;-59
2022/06/06 04:02:25;;;;;;;17.23;16.13;;;;;;;;;;5033755;28;20029;-59
2022/06/06 04:04:52;;;;;;;14.93;14.05;;;;;;;;;;5036668;28;20724;-59
2022/06/06 04:07:17;;;;;;;14.88;13.98;;;;;;;;;;5033685;28;20037;-59
2022/06/06 04:09:43;;;;;;;15.40;14.50;;;;;;;;;;5031202;28;20040;-58
2022/06/06 04:12:21;;;;;;;16.05;15.15;;;;;;;;;;5035520;28;20382;-59
2022/06/06 04:14:49;;;;;;;13.73;12.93;;;;;;;;;;5027984;28;20363;-59
2022/06/06 04:17:30;;;;;;;15.27;14.35;;;;;;;;;;5032672;28;20459;-59
2022/06/06 04:20:20;;;;;;;13.35;12.45;;;;;;;;;;5035558;28;20022;-59
2022/06/06 04:23:06;;;;;;;12.98;12.18;;;;;;;;;;5031992;28;20045;-60
2022/06/06 04:25:54;;;;;;;14.38;13.55;;;;;;;;;;5034146;28;20029;-59
2022/06/06 04:28:45;;;;;;;12.77;12.05;;;;;;;;;;5036104;28;20060;-60
2022/06/06 04:31:30;;;;;;;14.05;12.85;;;;;;;;;;5031190;28;20041;-59
2022/06/06 04:34:15;;;;;;;14.02;12.95;;;;;;;;;;5031053;28;20028;-59
2022/06/06 04:36:55;;;;;;;12.57;11.82;;;;;;;;;;5033845;28;20056;-59
2022/06/06 04:39:44;;;;;;;15.00;14.10;;;;;;;;;;5034450;28;20025;-59
2022/06/06 04:42:15;;;;;;;13.63;12.82;;;;;;;;;;5035879;28;20390;-59
2022/06/06 04:44:57;;;;;;;12.73;11.93;;;;;;;;;;5031458;28;20461;-59
2022/06/06 04:47:42;;;;;;;13.77;12.98;;;;;;;;;;5031774;28;20040;-59
2022/06/06 04:50:13;;;;;;;13.43;12.63;;;;;;;;;;5034232;28;20072;-58
2022/06/06 04:52:42;;;;;;;12.32;11.63;;;;;;;;;;5035108;28;20044;-58
2022/06/06 04:55:09;;;;;;;14.88;13.98;;;;;;;;;;5034449;28;20103;-58
2022/06/06 04:57:37;;;;;;;14.80;13.90;;;;;;;;;;5029704;28;20030;-59
2022/06/06 05:00:05;;;;;;;16.88;15.88;;;;;;;;;;5032596;28;20029;-59
2022/06/06 05:02:33;;;;;;;14.40;13.50;;;;;;;;;;5035790;28;20044;-59
2022/06/06 05:04:59;;;;;;;18.70;17.60;;;;;;;;;;5034296;28;20133;-59
2022/06/06 05:07:34;;;;;;;20.85;19.73;;;;;;;;;;5033377;28;20444;-59
2022/06/06 05:10:20;;;;;;;16.48;15.52;;;;;;;;;;5030425;28;20739;-59
2022/06/06 05:13:14;;;;;;;20.00;18.90;;;;;;;;;;5029838;28;20069;-59
2022/06/06 05:15:58;;;;;;;20.83;19.55;;;;;;;;;;5033281;28;20032;-59
2022/06/06 05:19:05;;;;;;;26.08;24.63;;;;;;;;;;5035109;28;20026;-59
2022/06/06 05:22:02;;;;;;;23.33;21.92;;;;;;;;;;5033785;28;20041;-59
2022/06/06 05:24:51;;;;;;;27.75;26.27;;;;;;;;;;5030648;28;20510;-59
2022/06/06 05:27:31;;;;;;;26.00;24.60;;;;;;;;;;5032825;28;20041;-59
2022/06/06 05:29:59;;;;;;;21.23;19.90;;;;;;;;;;5034187;28;20033;-60
2022/06/06 05:32:49;;;;;;;29.10;27.48;;;;;;;;;;5030272;28;20052;-59
2022/06/06 05:35:42;;;;;;;31.63;29.63;;;;;;;;;;5034106;28;20084;-59
2022/06/06 05:38:29;;;;;;;32.05;30.30;;;;;;;;;;5012158;28;20051;-60
2022/06/06 05:40:55;;;;;;;24.25;22.83;;;;;;;;;;5027481;28;20025;-60
2022/06/06 05:43:45;;;;;;;18.92;17.83;;;;;;;;;;5028579;28;20060;-60
2022/06/06 05:46:20;;;;;;;;;;;;;;;;;;5032556;28;20485;-59
2022/06/06 05:49:09;;;;;;;17.65;16.65;;;;;;;;;;5029627;28;20105;-59
2022/06/06 05:51:47;;;;;;;16.10;15.10;;;;;;;;;;5031942;28;20032;-59
2022/06/06 05:54:23;;;;;;;13.90;13.05;;;;;;;;;;5032125;28;20468;-60
2022/06/06 05:57:07;;;;;;;11.75;10.95;;;;;;;;;;5030092;28;20033;-60
2022/06/06 05:59:45;;;;;;;14.60;13.75;;;;;;;;;;5033716;28;20029;-59
2022/06/06 06:02:47;;;;;;;11.90;11.05;;;;;;;;;;5031293;28;20039;-59
2022/06/06 06:05:39;;;;;;;13.93;13.10;;;;;;;;;;5019239;28;20049;-60
2022/06/06 06:08:07;;;;;;;15.88;14.98;;;;;;;;;;5030656;28;20052;-60
2022/06/06 06:10:55;;;;;;;13.85;12.95;;;;;;;;;;5030635;28;20485;-60
2022/06/06 06:13:49;;;;;;;17.40;16.40;;;;;;;;;;5030997;28;20032;-60
2022/06/06 06:16:17;;;;;;;24.10;22.75;;;;;;;;;;5030030;28;20044;-60
2022/06/06 06:19:16;;;;;;;17.15;16.15;;;;;;;;;;5030121;28;20033;-60
2022/06/06 06:21:46;;;;;;;21.52;20.33;;;;;;;;;;5031087;28;20538;-60
2022/06/06 06:24:18;;;;;;;17.67;16.67;;;;;;;;;;5030797;28;20044;-60
2022/06/06 06:26:45;;;;;;;17.45;16.45;;;;;;;;;;5031984;28;20065;-60
2022/06/06 06:29:11;;;;;;;11.88;11.18;;;;;;;;;;5031175;28;20544;-60
2022/06/06 06:31:49;;;;;;;12.23;11.52;;;;;;;;;;5028844;28;20045;-60
2022/06/06 06:34:41;;;;;;;9.45;8.65;;;;;;;;;;5033129;28;20107;-59
2022/06/06 06:37:31;;;;;;;9.95;9.15;;;;;;;;;;5034242;28;20564;-59
2022/06/06 06:40:18;;;;;;;8.02;7.53;;;;;;;;;;5036515;28;20030;-60
2022/06/06 06:43:06;;;;;;;7.97;7.43;;;;;;;;;;5034210;28;20025;-60
2022/06/06 06:45:57;;;;;;;7.80;7.20;;;;;;;;;;5035337;28;20072;-59
2022/06/06 06:48:29;;;;;;;7.60;7.10;;;;;;;;;;5029303;28;20084;-60
2022/06/06 06:51:36;;;;;;;10.63;8.20;;;;;;;;;;5034758;28;20061;-59
2022/06/06 06:54:19;;;;;;;8.15;7.55;;;;;;;;;;5028321;28;20475;-59
2022/06/06 06:57:14;;;;;;;8.63;8.02;;;;;;;;;;5038171;28;20025;-59
2022/06/06 07:00:01;;;;;;;9.18;8.48;;;;;;;;;;5035684;28;20033;-59
2022/06/06 07:08:54;;;;;;;7.57;7.07;;;;;;;;;;5036541;28;20041;-60
2022/06/06 07:11:44;;;;;;;8.75;8.15;;;;;;;;;;5034428;28;20029;-59
2022/06/06 07:14:23;;;;;;;8.82;8.13;;;;;;;;;;5037210;28;20076;-59
2022/06/06 07:16:58;;;;;;;8.48;7.88;;;;;;;;;;5040373;28;20033;-59
2022/06/06 07:19:33;;;;;;;8.98;8.38;;;;;;;;;;5035412;28;20486;-60
2022/06/06 07:22:01;;;;;;;8.10;7.50;;;;;;;;;;5031637;28;20646;-60
2022/06/06 07:24:27;;;;;;;8.30;7.60;;;;;;;;;;5032245;28;20099;-60
2022/06/06 07:26:53;;;;;;;8.57;7.97;;;;;;;;;;5031902;28;20026;-60
2022/06/06 07:29:20;;;;;;;8.27;7.68;;;;;;;;;;5034753;28;20076;-61
2022/06/06 07:32:12;;;;;;;8.60;7.90;;;;;;;;;;5033650;28;20024;-60
2022/06/06 07:35:02;;;;;;;8.90;8.20;;;;;;;;;;5034082;28;20036;-59
2022/06/06 07:37:48;;;;;;;8.30;7.75;;;;;;;;;;5030964;28;20036;-59
2022/06/06 07:40:35;;;;;;;8.43;7.82;;;;;;;;;;5030367;28;20033;-60
2022/06/06 07:43:06;;;;;;;9.07;8.48;;;;;;;;;;5035157;28;20032;-61
2022/06/06 07:45:41;;;;;;;9.00;8.32;;;;;;;;;;5032917;28;20029;-61
2022/06/06 07:48:19;;;;;;;10.07;9.48;;;;;;;;;;5034170;28;20033;-60
2022/06/06 07:51:10;;;;;;;9.48;8.88;;;;;;;;;;5034467;28;20041;-61
2022/06/06 07:53:45;;;;;;;8.88;8.27;;;;;;;;;;5040401;28;20029;-62
2022/06/06 07:56:14;;;;;;;10.07;9.38;;;;;;;;;;5033910;28;20061;-62
2022/06/06 07:58:51;;;;;;;9.95;9.35;;;;;;;;;;5033256;28;20037;-61
2022/06/06 08:01:26;;;;;;;11.35;10.63;;;;;;;;;;5033406;28;20037;-60
2022/06/06 08:04:16;;;;;;;13.10;12.30;;;;;;;;;;5032847;28;20041;-60
2022/06/06 08:06:55;;;;;;;12.15;11.35;;;;;;;;;;5035612;28;20183;-60
2022/06/06 08:09:50;;;;;;;13.80;13.00;;;;;;;;;;5029940;28;20022;-61
2022/06/06 08:12:48;;;;;;;12.07;11.30;;;;;;;;;;5036050;28;20061;-63
2022/06/06 08:15:51;;;;;;;15.13;14.00;;;;;;;;;;5032227;28;20045;-64
2022/06/06 08:18:54;;;;;;;12.25;11.55;;;;;;;;;;5031441;28;20049;-64
2022/06/06 08:21:36;;;;;;;18.08;17.08;;;;;;;;;;5033416;28;20040;-64
2022/06/06 08:24:06;;;;;;;16.10;15.20;;;;;;;;;;5035283;28;20075;-68
2022/06/06 08:26:36;;;;;;;14.18;13.38;;;;;;;;;;5034011;28;20368;-66
2022/06/06 08:29:05;;;;;;;13.48;12.68;;;;;;;;;;5034845;28;20033;-67
2022/06/06 08:31:30;;;;;;;17.67;16.58;;;;;;;;;;5032992;28;20478;-67
2022/06/06 08:33:55;;;;;;;14.52;13.63;;;;;;;;;;5031930;28;20029;-67
2022/06/06 08:36:32;;;;;;;14.73;13.82;;;;;;;;;;5030978;28;20505;-67
2022/06/06 08:39:08;;;;;;;14.98;14.07;;;;;;;;;;5033789;28;20037;-70
2022/06/06 08:42:07;;;;;;;17.98;16.98;;;;;;;;;;5035501;28;20041;-72
2022/06/06 08:44:41;;;;;;;17.50;16.50;;;;;;;;;;5030454;28;20800;-69
2022/06/06 08:47:28;;;;;;;16.45;15.55;;;;;;;;;;5033108;28;20076;-69
2022/06/06 08:53:00;;;;;;;18.80;17.73;;;;;;;;;;5029165;28;20045;-69
2022/06/06 08:55:34;;;;;;;17.35;16.35;;;;;;;;;;5030050;28;20466;-71
2022/06/06 08:58:19;;;;;;;17.63;16.63;;;;;;;;;;5036211;28;20418;-70
2022/06/06 09:01:16;;;;;;;16.02;15.13;;;;;;;;;;5034850;28;20107;-70
2022/06/06 09:04:11;;;;;;;17.48;16.38;;;;;;;;;;5035991;28;20043;-72
2022/06/06 09:06:45;;;;;;;16.27;15.32;;;;;;;;;;5032537;28;20048;-73
2022/06/06 09:09:19;;;;;;;15.80;14.82;;;;;;;;;;5029584;28;20037;-72
2022/06/06 09:12:04;;;;;;;15.20;14.30;;;;;;;;;;5034005;28;20481;-72
2022/06/06 09:15:04;;;;;;;17.55;16.55;;;;;;;;;;5035379;28;20021;-72
2022/06/06 09:18:03;;;;;;;12.47;11.70;;;;;;;;;;5035379;28;20041;-73
2022/06/06 09:21:02;;;;;;;9.65;9.05;;;;;;;;;;5033067;28;20025;-69
2022/06/06 09:24:02;;;;;;;8.73;8.18;;;;;;;;;;5033998;28;20018;-68
2022/06/06 09:26:54;;;;;;;8.55;8.00;;;;;;;;;;5032567;28;20631;-69
2022/06/06 09:30:06;;;;;;;9.55;8.90;;;;;;;;;;5030592;28;20132;-70
2022/06/06 09:33:03;;;;;;;8.95;8.35;;;;;;;;;;5033416;28;20037;-69
2022/06/06 09:35:43;;;;;;;9.38;8.65;;;;;;;;;;5030933;28;20505;-69
2022/06/06 09:38:26;;;;;;;8.02;7.53;;;;;;;;;;5029750;28;20040;-68
2022/06/06 09:41:06;;;;;;;9.45;8.85;;;;;;;;;;5032631;28;20100;-70
2022/06/06 09:43:55;;;;;;;7.72;7.10;;;;;;;;;;5032597;28;20437;-70
2022/06/06 09:46:45;;;;;;;7.47;6.97;;;;;;;;;;5003754;28;20039;-69
2022/06/06 09:49:19;;;;;;;7.75;7.15;;;;;;;;;;5034846;28;20112;-69
2022/06/06 09:51:44;;;;;;;7.22;6.72;;;;;;;;;;5032480;28;20037;-69
2022/06/06 10:00:27;;;;;;;7.65;7.05;;;;;;;;;;5033637;28;20037;-71
2022/06/06 10:03:26;;;;;;;7.18;6.68;;;;;;;;;;5028728;28;20497;-70
2022/06/06 10:06:14;;;;;;;6.65;6.15;;;;;;;;;;5033750;28;20044;-71
2022/06/06 10:08:58;;;;;;;7.85;7.35;;;;;;;;;;5033342;28;20029;-72
2022/06/06 10:12:02;;;;;;;7.55;7.05;;;;;;;;;;5030572;28;20049;-71
2022/06/06 10:14:57;;;;;;;8.10;7.50;;;;;;;;;;5031850;28;20041;-73
2022/06/06 10:17:50;;;;;;;7.78;7.28;;;;;;;;;;5019327;28;20475;-74
2022/06/06 10:20:15;;;;;;;7.15;6.65;;;;;;;;;;5032423;28;20049;-71
2022/06/06 10:22:54;;;;;;;7.95;7.45;;;;;;;;;;5033249;28;20053;-71
2022/06/06 10:25:25;;;;;;;9.18;8.57;;;;;;;;;;5033449;28;20033;-71
2022/06/06 10:28:24;;;;;;;8.85;8.25;;;;;;;;;;5034643;28;20337;-71
2022/06/06 10:30:59;;;;;;;9.68;9.07;;;;;;;;;;5035076;28;20030;-71
2022/06/06 10:33:43;;;;;;;9.00;8.40;;;;;;;;;;5033202;28;20087;-71
2022/06/06 10:36:27;;;;;;;11.98;11.27;;;;;;;;;;5035202;28;20099;-72
2022/06/06 10:39:27;;;;;;;29.92;28.33;;;;;;;;;;5034920;28;20625;-74
2022/06/06 10:42:14;;;;;;;40.65;38.58;;;;;;;;;;5032108;28;20120;-66
2022/06/06 10:45:23;;;;;;;51.67;49.08;;;;;;;;;;5027938;28;20030;-71
2022/06/06 10:48:09;;;;;;;47.08;44.65;;;;;;;;;;5036557;28;20026;-74
2022/06/06 10:54:21;;;;;;;57.10;54.20;;;;;;;;;;5031118;28;20033;-72
2022/06/06 10:57:17;;;;;;;51.25;48.67;;;;;;;;;;5034278;28;20112;-70
2022/06/06 11:00:05;;;;;;;48.80;46.30;;;;;;;;;;5031349;28;20025;-73
2022/06/06 11:02:45;;;;;;;46.33;43.90;;;;;;;;;;5031876;28;20034;-73
2022/06/06 11:05:59;;;;;;;48.47;46.05;;;;;;;;;;5030467;28;20037;-67
2022/06/06 11:08:50;;;;;;;44.78;42.47;;;;;;;;;;5030191;28;20052;-72
2022/06/06 11:11:55;;;;;;;56.58;53.72;;;;;;;;;;5034115;28;20036;-65
2022/06/06 11:14:39;;;;;;;66.90;63.53;;;;;;;;;;5031946;28;20037;-67
2022/06/06 11:17:38;;;;;;;60.03;57.03;;;;;;;;;;5030164;28;20143;-66
2022/06/06 11:20:18;;;;;;;61.72;58.63;;;;;;;;;;5036233;28;20371;-73
2022/06/06 11:23:16;;;;;;;67.97;64.57;;;;;;;;;;5035614;28;20060;-74
2022/06/06 11:26:15;;;;;;;69.88;66.43;;;;;;;;;;5025810;28;20046;-72
2022/06/06 11:29:11;;;;;;;60.35;57.30;;;;;;;;;;5015103;28;20037;-74
2022/06/06 11:31:58;;;;;;;68.25;64.85;;;;;;;;;;5034024;28;20088;-71
2022/06/06 11:34:46;;;;;;;54.15;51.45;;;;;;;;;;5034515;28;20033;-70
2022/06/06 11:37:28;;;;;;;40.13;38.10;;;;;;;;;;5030018;28;20041;-71
2022/06/06 11:40:21;;;;;;;47.00;44.63;;;;;;;;;;5037552;28;20038;-70
2022/06/06 11:43:19;;;;;;;40.25;38.15;;;;;;;;;;5033217;28;20021;-70
2022/06/06 11:45:58;;;;;;;40.25;38.17;;;;;;;;;;5035623;28;20048;-66
2022/06/06 11:48:42;;;;;;;54.00;51.30;;;;;;;;;;5034612;28;20052;-68
2022/06/06 11:51:38;;;;;;;52.95;50.25;;;;;;;;;;5034519;28;20101;-67
2022/06/06 11:54:31;;;;;;;59.17;56.20;;;;;;;;;;5034952;28;20181;-73
2022/06/06 11:56:59;;;;;;;72.93;69.30;;;;;;;;;;5033951;28;20045;-67
2022/06/06 11:59:30;;;;;;;83.97;79.80;;;;;;;;;;5033386;28;20535;-67
2022/06/06 12:02:23;;;;;;;77.65;73.82;;;;;;;;;;5033431;28;20029;-69
2022/06/06 12:05:26;;;;;;;114.05;108.45;;;;;;;;;;5032387;28;20162;-72
2022/06/06 12:08:16;;;;;;;75.35;71.63;;;;;;;;;;5033569;28;20062;-66
2022/06/06 12:11:06;;;;;;;74.82;71.13;;;;;;;;;;5034341;28;20486;-70
2022/06/06 12:13:53;;;;;;;98.95;94.05;;;;;;;;;;5018083;28;20048;-66
2022/06/06 12:16:29;;;;;;;84.95;80.72;;;;;;;;;;5032623;28;20032;-69
2022/06/06 12:19:23;;;;;;;79.45;75.50;;;;;;;;;;5033182;28;20029;-70
2022/06/06 12:21:54;;;;;;;96.45;91.70;;;;;;;;;;5029015;28;20077;-71
2022/06/06 12:24:39;;;;;;;130.85;124.45;;;;;;;;;;5030985;28;20147;-72
2022/06/06 12:27:19;;;;;;;149.73;142.32;;;;;;;;;;5032990;28;20120;-71
2022/06/06 12:30:08;;;;;;;122.75;116.70;;;;;;;;;;5030087;28;20167;-69
2022/06/06 12:32:55;;;;;;;155.55;147.88;;;;;;;;;;5034974;28;20044;-67
2022/06/06 12:35:40;;;;;;;151.10;143.68;;;;;;;;;;5018084;28;20463;-65
2022/06/06 12:38:18;;;;;;;142.80;135.75;;;;;;;;;;5035209;28;20056;-68
2022/06/06 12:40:52;;;;;;;160.50;152.63;;;;;;;;;;5034748;28;20028;-69
2022/06/06 12:43:39;;;;;;;142.82;135.70;;;;;;;;;;5035193;28;20033;-70
2022/06/06 12:46:35;;;;;;;168.90;160.68;;;;;;;;;;5033437;28;20051;-66
2022/06/06 12:49:26;;;;;;;69.18;65.70;;;;;;;;;;5032969;28;20021;-71
2022/06/06 12:52:07;;;;;;;208.30;198.18;;;;;;;;;;5030887;28;20537;-71
2022/06/06 12:57:53;;;;;;;151.70;144.23;;;;;;;;;;5034917;28;20037;-71
2022/06/06 13:01:37;;;;;;;179.38;170.63;;;;;;;;;;5035254;28;20041;-70
2022/06/06 13:03:49;;;;;;;107.53;102.25;;;;;;;;;;5033441;28;20039;-73
2022/06/06 13:06:23;;;;;;;56.67;53.72;;;;;;;;;;5030457;28;20037;-68
2022/06/06 13:09:14;;;;;;;70.18;66.68;;;;;;;;;;5035686;28;20032;-72
2022/06/06 13:12:10;;;;;;;136.50;129.80;;;;;;;;;;5032968;28;20026;-65
2022/06/06 13:15:04;;;;;;;130.82;124.43;;;;;;;;;;5031913;28;20034;-72
2022/06/06 13:18:01;;;;;;;99.18;94.25;;;;;;;;;;5032512;28;20606;-72
2022/06/06 13:20:55;;;;;;;151.57;144.13;;;;;;;;;;5031677;28;20044;-74
2022/06/06 13:23:47;;;;;;;173.13;164.65;;;;;;;;;;5037785;28;20045;-73
2022/06/06 13:26:41;;;;;;;82.95;78.82;;;;;;;;;;5033252;28;20036;-71
2022/06/06 13:29:07;;;;;;;204.18;194.10;;;;;;;;;;5031041;28;20475;-68
2022/06/06 13:31:52;;;;;;;114.35;108.53;;;;;;;;;;5035541;28;20071;-70
2022/06/06 13:34:44;;;;;;;71.75;68.13;;;;;;;;;;5030797;28;20037;-70
2022/06/06 13:37:42;;;;;;;84.55;80.38;;;;;;;;;;5033001;28;20036;-70
2022/06/06 13:40:25;;;;;;;131.55;125.07;;;;;;;;;;5032952;28;20055;-72
2022/06/06 13:42:59;;;;;;;77.85;73.97;;;;;;;;;;5034312;28;20040;-74
2022/06/06 13:45:34;;;;;;;62.72;59.58;;;;;;;;;;5028802;28;20037;-71
2022/06/06 13:48:27;;;;;;;72.53;68.93;;;;;;;;;;5033528;28;20017;-72
2022/06/06 13:50:58;;;;;;;91.40;86.90;;;;;;;;;;5030987;28;20592;-72
2022/06/06 13:53:48;;;;;;;124.50;118.35;;;;;;;;;;5031639;28;20554;-72
2022/06/06 13:56:42;;;;;;;200.82;191.00;;;;;;;;;;5032867;28;20076;-72
2022/06/06 13:59:16;;;;;;;122.80;116.80;;;;;;;;;;5030726;28;20103;-66
2022/06/06 14:02:14;;;;;;;79.18;75.22;;;;;;;;;;5033507;28;20029;-72
2022/06/06 14:05:13;;;;;;;49.92;47.38;;;;;;;;;;5034096;28;20367;-70
2022/06/06 14:07:57;;;;;;;55.38;52.58;;;;;;;;;;5032434;28;20029;-71
2022/06/06 14:10:36;;;;;;;55.88;53.05;;;;;;;;;;5032808;28;20104;-69
2022/06/06 14:13:39;;;;;;;75.13;71.43;;;;;;;;;;5031648;28;20048;-64
2022/06/06 14:16:38;;;;;;;62.55;59.38;;;;;;;;;;5030152;28;20043;-65
2022/06/06 14:19:16;;;;;;;66.55;63.13;;;;;;;;;;5029735;28;20654;-64
2022/06/06 14:22:04;;;;;;;64.65;61.35;;;;;;;;;;5028624;28;20029;-65
2022/06/06 14:24:35;;;;;;;47.25;44.88;;;;;;;;;;5032657;28;20032;-67
2022/06/06 14:27:04;;;;;;;37.65;35.75;;;;;;;;;;5030640;28;20033;-66
2022/06/06 14:29:36;;;;;;;47.28;44.88;;;;;;;;;;5035666;28;20606;-64
2022/06/06 14:32:22;;;;;;;48.90;46.35;;;;;;;;;;5035575;28;20127;-64
2022/06/06 14:34:51;;;;;;;46.17;43.88;;;;;;;;;;5032022;28;20079;-68
2022/06/06 14:37:31;;;;;;;47.45;45.00;;;;;;;;;;5027903;28;20037;-65
2022/06/06 14:39:58;;;;;;;;;;;;;;;;;;5033852;28;20647;-63
2022/06/06 14:42:33;;;;;;;49.15;46.65;;;;;;;;;;5032743;28;20071;-66
2022/06/06 14:45:05;;;;;;;55.72;52.92;;;;;;;;;;5032571;28;20048;-63
2022/06/06 14:47:33;;;;;;;52.00;49.38;;;;;;;;;;5031969;28;20088;-65
2022/06/06 14:53:04;;;;;;;38.70;36.70;;;;;;;;;;5032118;28;20068;-64
2022/06/06 14:55:32;;;;;;;47.08;44.67;;;;;;;;;;5036326;28;20091;-65
2022/06/06 14:57:58;;;;;;;56.13;53.30;;;;;;;;;;5035224;28;20028;-63
2022/06/06 15:00:35;;;;;;;65.15;61.90;;;;;;;;;;5034326;28;20061;-63
2022/06/06 15:03:08;;;;;;;68.82;65.40;;;;;;;;;;5032405;28;20068;-65
2022/06/06 15:05:35;;;;;;;64.93;61.72;;;;;;;;;;5033252;28;20033;-66
2022/06/06 15:08:12;;;;;;;62.97;59.88;;;;;;;;;;5036096;28;20036;-65
2022/06/06 15:10:41;;;;;;;74.60;70.90;;;;;;;;;;5033080;28;20471;-63
2022/06/06 15:13:07;;;;;;;80.03;76.07;;;;;;;;;;5034843;28;20103;-63
2022/06/06 15:15:34;;;;;;;60.90;57.88;;;;;;;;;;5033587;28;20025;-65
2022/06/06 15:18:01;;;;;;;57.58;54.67;;;;;;;;;;5038922;28;20024;-64
2022/06/06 15:20:37;;;;;;;36.75;34.85;;;;;;;;;;5035781;28;20138;-64
2022/06/06 15:23:27;;;;;;;38.67;36.67;;;;;;;;;;5036115;28;20121;-65
2022/06/06 15:26:12;;;;;;;36.47;34.58;;;;;;;;;;5034735;28;20071;-62
2022/06/06 15:29:04;;;;;;;33.35;31.65;;;;;;;;;;5032243;28;20029;-64
2022/06/06 15:31:44;;;;;;;35.63;33.83;;;;;;;;;;5035659;28;20037;-62
2022/06/06 15:34:13;;;;;;;51.42;48.83;;;;;;;;;;5034238;28;20121;-66
2022/06/06 15:37:03;;;;;;;59.15;56.20;;;;;;;;;;5029436;28;20510;-61
2022/06/06 15:39:34;;;;;;;;;;;;;;;;;;5034356;28;20032;-59
2022/06/06 15:42:15;;;;;;;39.22;37.20;;;;;;;;;;5036706;28;19919;-60
2022/06/06 15:44:43;;;;;;;50.78;48.22;;;;;;;;;;5033543;28;20571;-60
2022/06/06 15:47:23;;;;;;;75.55;71.80;;;;;;;;;;5039913;28;20037;-61
2022/06/06 15:50:20;;;;;;;81.10;77.10;;;;;;;;;;5036983;28;20021;-61
2022/06/06 15:52:56;;;;;;;73.40;69.75;;;;;;;;;;5033192;28;20039;-62
2022/06/06 15:55:35;;;;;;;83.47;79.38;;;;;;;;;;5031999;28;20029;-62
2022/06/06 15:58:18;;;;;;;80.07;76.13;;;;;;;;;;5033013;28;20029;-61
2022/06/06 16:00:53;;;;;;;73.95;70.15;;;;;;;;;;5030845;28;20068;-61
2022/06/06 16:03:40;;;;;;;70.38;66.88;;;;;;;;;;5033549;28;20033;-61
2022/06/06 16:06:08;;;;;;;57.72;54.85;;;;;;;;;;5033239;28;20037;-61
2022/06/06 16:08:48;;;;;;;59.17;56.22;;;;;;;;;;5035343;28;20060;-61
2022/06/06 16:11:27;;;;;;;54.10;51.38;;;;;;;;;;5031523;28;20088;-62